Araguapaz, Brazil
Current Conditions -  °F | °C
As of 4:00 PM on Friday 28 Nov 2014 (Local Time) from SBAN Reporting Station
Light Rain Light Rain  
Wind Chill: 64°   Ceiling: 400
Heat Index: 64°   Visibility: 3mi
Dew Point: 63°   Wind: 8mph
Humidity: 94%   Direction: 350°N
Pressure: 30.06"   Gusts: NA
Location:  15.09°S, 50.63°W
Report Text: SBAN 281800Z 35007KT 5000 -RA BKN004 FEW025TCU BKN100 18/17 Q1018 RERA
Loading
Personal Weather Stations






























Interactive Weather Map New forecast layout! Learn more

10-Day Weather Forecast

Advertisements
Track Severe Weather on mobile